createdAt,value
2018-06-09T00:00:27.080Z,78.20
2018-06-09T00:02:55.587Z,77.47
2018-06-09T00:05:24.092Z,86.17
2018-06-09T00:07:52.521Z,84.67
2018-06-09T00:10:20.917Z,86.87
2018-06-09T00:12:49.292Z,89.47
2018-06-09T00:15:17.622Z,89.27
2018-06-09T00:17:45.967Z,88.77
2018-06-09T00:20:14.445Z,89.03
2018-06-09T00:22:42.875Z,91.90
2018-06-09T00:25:11.724Z,89.43
2018-06-09T00:27:40.592Z,91.47
2018-06-09T00:30:09.053Z,97.10
2018-06-09T00:32:37.701Z,91.47
2018-06-09T00:35:06.156Z,97.10
2018-06-09T00:37:34.639Z,94.90
2018-06-09T00:40:03.185Z,93.87
2018-06-09T00:42:31.715Z,94.93
2018-06-09T00:45:00.251Z,97.70
2018-06-09T00:47:28.836Z,94.43
2018-06-09T00:49:57.254Z,93.73
2018-06-09T00:52:25.617Z,90.13
2018-06-09T00:54:54.089Z,96.10
2018-06-09T00:57:22.545Z,94.20
2018-06-09T00:59:51.005Z,93.17
2018-06-09T01:02:19.481Z,93.30
2018-06-09T01:04:47.941Z,98.67
2018-06-09T01:07:16.383Z,101.27
2018-06-09T01:09:44.717Z,100.60
2018-06-09T01:12:13.083Z,93.77
2018-06-09T01:14:41.677Z,94.03
2018-06-09T01:17:10.043Z,96.77
2018-06-09T01:19:38.457Z,92.33
2018-06-09T01:22:06.860Z,93.40
2018-06-09T01:24:35.233Z,93.40
2018-06-09T01:27:03.638Z,89.93
2018-06-09T01:29:31.973Z,91.67
2018-06-09T01:32:00.397Z,89.10
2018-06-09T01:34:28.769Z,94.67
2018-06-09T01:36:57.241Z,91.17
2018-06-09T01:39:25.557Z,95.23
2018-06-09T01:41:53.934Z,93.30
2018-06-09T01:44:22.329Z,95.37
2018-06-09T01:46:50.729Z,94.67
2018-06-09T01:49:19.231Z,89.77
2018-06-09T01:51:47.611Z,90.73
2018-06-09T01:54:16.024Z,91.67
2018-06-09T01:56:44.474Z,89.97
2018-06-09T01:59:12.955Z,92.20
2018-06-09T02:01:41.544Z,91.20
2018-06-09T02:04:10.001Z,89.87
2018-06-09T02:06:38.385Z,90.83
2018-06-09T02:09:08.979Z,91.33
2018-06-09T02:11:37.468Z,88.97
2018-06-09T02:14:06.324Z,86.23
2018-06-09T02:16:34.801Z,82.97
2018-06-09T02:19:03.231Z,82.07
2018-06-09T02:21:31.595Z,84.93
2018-06-09T02:24:00.037Z,82.43
2018-06-09T02:26:28.462Z,81.63
2018-06-09T02:28:56.930Z,83.60
2018-06-09T02:31:25.389Z,84.87
2018-06-09T02:33:53.837Z,80.60
2018-06-09T02:36:22.362Z,79.30
2018-06-09T02:38:50.827Z,82.50
2018-06-09T02:41:19.314Z,83.63
2018-06-09T02:43:47.828Z,82.40
2018-06-09T02:46:16.294Z,79.83
2018-06-09T02:48:44.747Z,82.80
2018-06-09T02:51:13.233Z,82.10
2018-06-09T02:53:41.757Z,84.30
2018-06-09T02:56:10.233Z,84.67
2018-06-09T02:58:38.654Z,83.80
2018-06-09T03:01:07.163Z,87.97
2018-06-09T03:03:35.608Z,83.60
2018-06-09T03:06:03.979Z,85.23
2018-06-09T03:08:32.380Z,81.47
2018-06-09T03:11:00.765Z,83.23
2018-06-09T03:13:29.292Z,79.27
2018-06-09T03:15:57.688Z,77.83
2018-06-09T03:18:26.061Z,78.57
2018-06-09T03:20:54.491Z,80.30
2018-06-09T03:23:22.979Z,80.87
2018-06-09T03:25:51.458Z,78.90
2018-06-09T03:28:19.875Z,77.70
2018-06-09T03:30:48.287Z,76.73
2018-06-09T03:33:16.754Z,73.97
2018-06-09T03:35:45.154Z,75.83
2018-06-09T03:38:13.609Z,78.43
2018-06-09T03:40:41.983Z,77.27
2018-06-09T03:43:10.453Z,81.97
2018-06-09T03:45:38.918Z,77.77
2018-06-09T03:48:07.326Z,72.47
2018-06-09T03:50:35.697Z,78.60
2018-06-09T03:53:04.017Z,85.33
2018-06-09T03:55:32.398Z,76.20
2018-06-09T03:58:00.857Z,74.17
2018-06-09T04:00:29.253Z,77.37
2018-06-09T04:02:57.744Z,77.20
2018-06-09T04:05:26.177Z,80.50
2018-06-09T04:07:54.538Z,79.10
2018-06-09T04:10:22.981Z,88.10
2018-06-09T04:12:51.406Z,92.17
2018-06-09T04:15:19.789Z,90.00
2018-06-09T04:17:48.225Z,94.70
2018-06-09T04:20:16.770Z,93.10
2018-06-09T04:22:45.189Z,92.40
2018-06-09T04:25:13.597Z,96.50
2018-06-09T04:27:42.002Z,96.23
2018-06-09T04:30:10.501Z,97.33
2018-06-09T04:32:38.895Z,93.63
2018-06-09T04:35:07.285Z,95.77
2018-06-09T04:37:35.702Z,96.00
2018-06-09T04:40:04.233Z,90.10
2018-06-09T04:42:32.641Z,91.80
2018-06-09T04:45:01.069Z,93.40
2018-06-09T04:47:29.393Z,90.40
2018-06-09T04:49:57.760Z,85.73
2018-06-09T04:52:26.069Z,90.20
2018-06-09T04:54:54.485Z,86.43
2018-06-09T04:57:22.933Z,88.07
2018-06-09T04:59:51.523Z,88.20
2018-06-09T05:02:20.520Z,82.23
2018-06-09T05:04:48.959Z,83.93
2018-06-09T05:07:17.470Z,85.40
2018-06-09T05:09:45.867Z,86.10
2018-06-09T05:15:20.572Z,84.70
2018-06-09T05:17:51.645Z,84.97
2018-06-09T05:20:20.082Z,86.20
2018-06-09T05:22:48.799Z,80.87
2018-06-09T05:25:17.478Z,83.97
2018-06-09T05:27:45.851Z,86.30
2018-06-09T05:30:15.172Z,87.43
2018-06-09T05:32:44.198Z,80.60
2018-06-09T05:35:12.833Z,83.23
2018-06-09T05:37:41.597Z,84.47
2018-06-09T05:40:10.124Z,85.03
2018-06-09T05:42:38.570Z,86.23
2018-06-09T05:45:08.038Z,89.80
2018-06-09T05:47:36.534Z,87.93
2018-06-09T05:50:05.187Z,86.50
2018-06-09T05:52:35.884Z,87.97
2018-06-09T05:55:05.325Z,89.13
2018-06-09T05:57:33.894Z,91.30
2018-06-09T06:00:02.450Z,91.27
2018-06-09T06:02:31.424Z,95.43
2018-06-09T06:05:00.069Z,88.47
2018-06-09T06:07:28.483Z,88.77
2018-06-09T06:09:57.329Z,85.40
2018-06-09T06:12:26.022Z,85.77
2018-06-09T06:14:54.898Z,94.70
2018-06-09T06:17:24.561Z,90.97
2018-06-09T06:19:53.035Z,100.67
2018-06-09T06:22:21.648Z,101.60
2018-06-09T06:24:50.477Z,104.17
2018-06-09T06:27:18.816Z,100.50
2018-06-09T06:29:47.447Z,94.43
2018-06-09T06:32:16.237Z,99.30
2018-06-09T06:34:44.624Z,91.87
2018-06-09T06:37:13.300Z,101.77
2018-06-09T06:39:41.835Z,96.47
2018-06-09T06:42:10.241Z,93.47
2018-06-09T06:44:38.655Z,92.70
2018-06-09T06:47:07.001Z,89.60
2018-06-09T06:49:35.745Z,89.10
2018-06-09T06:52:04.525Z,90.37
2018-06-09T06:54:33.819Z,95.90
2018-06-09T06:57:02.563Z,97.57
2018-06-09T06:59:32.085Z,87.47
2018-06-09T07:02:02.851Z,83.03
2018-06-09T07:04:34.677Z,85.73
2018-06-09T07:07:05.641Z,85.43
2018-06-09T07:09:36.484Z,98.97
2018-06-09T07:14:55.506Z,88.20
2018-06-09T07:17:25.462Z,94.60
2018-06-09T07:19:57.997Z,92.00
2018-06-09T07:22:27.119Z,77.47
2018-06-09T07:24:56.221Z,74.83
2018-06-09T07:27:24.842Z,73.03
2018-06-09T07:29:54.212Z,71.53
2018-06-09T07:32:23.629Z,72.73
2018-06-09T07:34:52.309Z,73.17
2018-06-09T07:37:21.719Z,73.90
2018-06-09T07:39:50.510Z,68.23
2018-06-09T07:42:23.615Z,68.60
2018-06-09T07:44:53.557Z,75.13
2018-06-09T07:47:23.065Z,70.67
2018-06-09T07:49:52.124Z,79.17
2018-06-09T07:52:20.712Z,75.10
2018-06-09T07:54:51.806Z,75.23
2018-06-09T07:57:20.744Z,78.50
2018-06-09T07:59:49.212Z,85.43
2018-06-09T08:02:17.873Z,85.10
2018-06-09T08:04:46.394Z,85.63
2018-06-09T08:07:14.737Z,82.70
2018-06-09T08:09:43.271Z,85.87
2018-06-09T08:12:11.629Z,81.77
2018-06-09T08:14:40.081Z,84.90
2018-06-09T08:17:09.733Z,84.13
2018-06-09T08:19:38.513Z,86.67
2018-06-09T08:22:07.014Z,84.73
2018-06-09T08:24:35.714Z,88.13
2018-06-09T08:27:04.450Z,85.10
2018-06-09T08:29:34.162Z,83.50
2018-06-09T08:32:03.260Z,84.90
2018-06-09T08:34:31.731Z,89.53
2018-06-09T08:37:00.591Z,83.77
2018-06-09T08:39:29.134Z,82.37
2018-06-09T08:41:58.123Z,83.60
2018-06-09T08:44:28.550Z,84.00
2018-06-09T08:46:57.110Z,80.07
2018-06-09T08:49:27.295Z,87.60
2018-06-09T08:51:56.266Z,81.63
2018-06-09T08:54:24.657Z,78.10
2018-06-09T08:56:53.190Z,76.80
2018-06-09T08:59:21.637Z,75.27
2018-06-09T09:01:51.001Z,71.60
2018-06-09T09:04:21.439Z,70.47
2018-06-09T09:07:01.326Z,65.93
2018-06-09T09:09:33.269Z,70.10
2018-06-09T09:12:01.926Z,72.00
2018-06-09T09:14:31.633Z,70.53
2018-06-09T09:17:02.493Z,66.63
2018-06-09T09:19:35.798Z,70.27
2018-06-09T09:22:07.569Z,68.63
2018-06-09T09:24:40.324Z,65.13
2018-06-09T09:27:09.985Z,60.77
2018-06-09T09:29:38.861Z,61.30
2018-06-09T09:32:09.465Z,61.17
2018-06-09T09:34:38.289Z,57.07
2018-06-09T09:37:10.606Z,59.37
2018-06-09T09:39:44.863Z,57.33
2018-06-09T09:42:21.277Z,51.40
2018-06-09T09:44:51.073Z,49.97
2018-06-09T09:47:20.338Z,51.40
2018-06-09T09:49:48.825Z,52.13
2018-06-09T09:52:18.695Z,50.10
2018-06-09T09:54:47.164Z,50.27
2018-06-09T09:57:15.785Z,48.17
2018-06-09T09:59:44.333Z,48.80
2018-06-09T10:02:13.168Z,44.27
2018-06-09T10:04:42.565Z,46.57
2018-06-09T10:07:11.758Z,42.77
2018-06-09T10:09:41.605Z,44.97
2018-06-09T10:12:10.979Z,43.70
2018-06-09T10:14:39.320Z,46.97
2018-06-09T10:17:10.066Z,43.43
2018-06-09T10:19:38.844Z,43.17
2018-06-09T10:22:08.119Z,44.77
2018-06-09T10:24:37.004Z,43.07
2018-06-09T10:27:05.744Z,44.73
2018-06-09T10:29:34.284Z,48.47
2018-06-09T10:32:02.982Z,44.60
2018-06-09T10:34:31.385Z,42.20
2018-06-09T10:36:59.728Z,42.10
2018-06-09T10:39:28.096Z,42.50
2018-06-09T10:41:56.608Z,36.60
2018-06-09T10:44:25.068Z,39.10
2018-06-09T10:46:53.421Z,34.97
2018-06-09T10:49:21.714Z,37.40
2018-06-09T10:51:55.615Z,33.77
2018-06-09T10:54:24.158Z,32.87
2018-06-09T10:56:52.477Z,30.70
2018-06-09T10:59:20.933Z,32.00
2018-06-09T11:01:49.331Z,30.57
2018-06-09T11:04:17.757Z,28.13
2018-06-09T11:06:46.168Z,32.90
2018-06-09T11:09:14.513Z,30.20
2018-06-09T11:11:42.824Z,31.50
2018-06-09T11:14:15.324Z,29.53
2018-06-09T11:16:44.077Z,29.43
2018-06-09T11:19:12.555Z,29.63
2018-06-09T11:21:40.938Z,29.23
2018-06-09T11:24:11.325Z,33.33
2018-06-09T11:26:40.212Z,31.10
2018-06-09T11:29:12.973Z,26.80
2018-06-09T11:31:44.488Z,28.60
2018-06-09T11:34:14.134Z,29.50
2018-06-09T11:37:13.819Z,24.93
2018-06-09T11:39:43.694Z,29.67
2018-06-09T11:43:01.029Z,31.33
2018-06-09T11:45:30.717Z,28.80
2018-06-09T11:48:05.267Z,29.20
2018-06-09T17:19:07.644Z,18.60
2018-06-09T17:27:39.084Z,18.70
2018-06-09T17:30:28.682Z,20.10
2018-06-09T17:33:07.263Z,20.40
2018-06-09T17:35:49.617Z,22.37
2018-06-09T17:38:21.397Z,20.67
2018-06-09T17:40:49.910Z,18.20
2018-06-09T17:43:18.376Z,20.27
2018-06-09T17:45:46.835Z,19.93
2018-06-09T17:48:15.366Z,18.80
2018-06-09T17:50:43.875Z,19.37
2018-06-09T17:53:12.283Z,20.83
2018-06-09T17:55:41.068Z,19.20
2018-06-09T17:58:13.895Z,19.27
2018-06-09T18:00:42.329Z,19.60
2018-06-09T18:03:10.984Z,21.30
2018-06-09T18:05:39.617Z,20.13
2018-06-09T18:08:08.261Z,21.50
2018-06-09T18:10:37.129Z,20.63
2018-06-09T18:13:06.290Z,20.93
2018-06-09T18:15:34.761Z,19.60
2018-06-09T18:18:03.841Z,21.07
2018-06-09T18:20:32.836Z,18.60
2018-06-09T18:23:01.937Z,19.93
2018-06-09T18:25:30.960Z,18.77
2018-06-09T18:27:59.511Z,17.70
2018-06-09T18:30:28.078Z,18.00
2018-06-09T18:32:56.704Z,18.33
2018-06-09T18:35:25.081Z,19.40
2018-06-09T18:37:53.638Z,18.00
2018-06-09T18:40:22.145Z,19.40
2018-06-09T18:42:55.996Z,19.27
2018-06-09T18:45:24.650Z,21.20
2018-06-09T18:47:53.743Z,18.90
2018-06-09T18:50:22.669Z,19.47
2018-06-09T18:52:51.630Z,19.57
2018-06-09T18:55:20.904Z,21.07
2018-06-09T18:57:50.473Z,18.87
2018-06-09T19:00:22.470Z,20.87
2018-06-09T19:03:02.984Z,21.30
2018-06-09T19:05:32.848Z,23.07
2018-06-09T19:08:02.742Z,19.67
2018-06-09T19:10:31.671Z,21.60
2018-06-09T19:52:43.055Z,25.90
2018-06-09T19:55:17.011Z,28.57
2018-06-09T19:57:45.930Z,27.80
2018-06-09T20:00:16.715Z,24.70
2018-06-09T20:02:45.864Z,24.93
2018-06-09T20:05:20.308Z,25.00
2018-06-09T20:07:50.182Z,26.70
2018-06-09T20:10:20.592Z,25.50
2018-06-09T20:12:49.496Z,24.73
2018-06-09T20:15:19.495Z,26.20
2018-06-09T20:17:55.225Z,24.10
2018-06-09T20:20:24.022Z,23.70
2018-06-09T20:22:57.598Z,24.30
2018-06-09T20:25:35.644Z,28.00
2018-06-09T20:31:04.886Z,23.93
2018-06-09T20:33:34.690Z,26.73
2018-06-09T20:36:04.188Z,26.70
2018-06-09T20:38:35.028Z,25.97
2018-06-09T20:41:05.322Z,23.73
2018-06-09T20:43:37.910Z,27.10
2018-06-09T20:46:11.818Z,30.37
2018-06-09T20:48:46.320Z,34.53
2018-06-09T20:51:19.644Z,31.33
2018-06-09T20:53:49.003Z,30.97
2018-06-09T20:56:18.984Z,27.00
2018-06-09T20:58:56.749Z,26.80
2018-06-09T21:01:48.275Z,26.30
2018-06-09T21:04:19.254Z,24.20
2018-06-09T22:01:51.742Z,31.33
2018-06-09T22:04:27.097Z,27.77
2018-06-09T22:07:02.916Z,28.97
2018-06-09T22:09:37.305Z,31.80
2018-06-09T22:12:11.954Z,33.07
2018-06-09T22:14:44.274Z,40.73
2018-06-09T22:17:15.621Z,43.77
2018-06-09T22:19:48.468Z,36.77
2018-06-09T22:22:20.330Z,39.30
2018-06-09T22:24:49.158Z,33.37
2018-06-09T22:27:26.101Z,30.70
2018-06-09T22:29:55.439Z,26.23
2018-06-09T22:32:29.966Z,22.97
2018-06-09T22:34:59.778Z,21.90
2018-06-09T22:37:34.149Z,22.87
2018-06-09T22:40:19.003Z,20.30
2018-06-09T22:42:50.896Z,17.10
2018-06-09T22:45:20.641Z,17.60
2018-06-09T22:47:49.956Z,16.77
2018-06-09T22:50:20.517Z,16.50
2018-06-09T22:52:51.398Z,16.77
2018-06-09T22:55:20.873Z,13.87
2018-06-09T22:57:50.081Z,13.47
2018-06-09T23:00:27.278Z,13.60
2018-06-09T23:02:58.607Z,14.17
2018-06-09T23:05:41.910Z,13.00
2018-06-09T23:08:10.962Z,11.80
2018-06-09T23:10:39.762Z,12.30
2018-06-09T23:13:11.438Z,12.53
2018-06-09T23:15:40.285Z,12.10
2018-06-09T23:18:09.851Z,11.27
2018-06-09T23:20:39.363Z,11.50
2018-06-09T23:23:09.291Z,10.50
2018-06-09T23:25:39.106Z,12.30
2018-06-09T23:28:08.894Z,13.87
2018-06-09T23:30:37.671Z,13.87
2018-06-09T23:33:06.297Z,14.00
2018-06-09T23:35:36.374Z,14.00
2018-06-09T23:38:07.240Z,13.67
2018-06-09T23:40:37.356Z,12.80
2018-06-09T23:43:07.177Z,12.60
2018-06-09T23:45:37.577Z,14.93
2018-06-09T23:48:07.930Z,19.20
2018-06-09T23:50:41.950Z,19.93
2018-06-09T23:53:12.444Z,18.93
2018-06-09T23:55:43.172Z,20.17
2018-06-09T23:58:13.360Z,20.83
